createdAt,value
2023-03-03T00:04:46.210Z,100742.94
2023-03-03T00:09:47.786Z,100746.34
2023-03-03T00:14:49.258Z,100748.00
2023-03-03T00:19:51.578Z,100743.75
2023-03-03T00:24:53.941Z,100754.59
2023-03-03T00:29:58.171Z,100749.47
2023-03-03T00:35:24.583Z,100749.44
2023-03-03T00:40:36.397Z,100757.72
2023-03-03T00:45:43.933Z,100756.84
2023-03-03T00:50:45.412Z,100758.47
2023-03-03T00:55:48.412Z,100755.97
2023-03-03T01:00:51.931Z,100760.16
2023-03-03T01:05:54.058Z,100751.88
2023-03-03T01:10:58.861Z,100753.63
2023-03-03T01:16:02.190Z,100745.22
2023-03-03T01:21:04.076Z,100743.47
2023-03-03T01:26:05.747Z,100743.41
2023-03-03T01:31:07.417Z,100756.72
2023-03-03T01:36:09.356Z,100740.72
2023-03-03T01:41:10.771Z,100742.31
2023-03-03T01:46:50.964Z,100742.25
2023-03-03T01:51:56.773Z,100746.25
2023-03-03T01:57:03.281Z,100741.06
2023-03-03T02:02:05.449Z,100728.38
2023-03-03T02:07:11.133Z,100720.81
2023-03-03T02:12:15.452Z,100719.84
2023-03-03T02:17:17.253Z,100723.81
2023-03-03T02:22:27.042Z,100730.19
2023-03-03T02:27:31.645Z,100729.16
2023-03-03T02:32:33.073Z,100739.03
2023-03-03T02:37:34.965Z,100736.44
2023-03-03T02:42:36.724Z,100737.19
2023-03-03T02:47:38.211Z,100747.16
2023-03-03T02:52:39.634Z,100747.25
2023-03-03T02:57:41.109Z,100750.69
2023-03-03T03:02:42.537Z,100752.38
2023-03-03T03:07:43.957Z,100745.69
2023-03-03T03:12:45.376Z,100753.25
2023-03-03T03:17:46.845Z,100752.44
2023-03-03T03:22:48.359Z,100758.38
2023-03-03T03:34:11.555Z,100762.53
2023-03-03T03:39:13.355Z,100765.78
2023-03-03T03:44:14.949Z,100770.66
2023-03-03T03:49:16.634Z,100776.59
2023-03-03T03:54:18.126Z,100773.28
2023-03-03T03:59:19.525Z,100766.63
2023-03-03T04:04:21.076Z,100767.44
2023-03-03T04:09:22.541Z,100770.81
2023-03-03T04:14:23.987Z,100773.44
2023-03-03T04:19:25.504Z,100773.56
2023-03-03T04:24:26.922Z,100782.91
2023-03-03T04:29:28.544Z,100769.53
2023-03-03T04:34:29.966Z,100775.22
2023-03-03T04:39:32.820Z,100781.75
2023-03-03T04:44:34.446Z,100785.16
2023-03-03T04:49:36.446Z,100787.69
2023-03-03T04:54:38.333Z,100792.81
2023-03-03T04:59:39.893Z,100789.66
2023-03-03T05:04:41.513Z,100790.53
2023-03-03T05:09:43.202Z,100789.84
2023-03-03T05:14:44.782Z,100793.28
2023-03-03T05:19:46.225Z,100790.88
2023-03-03T05:24:49.494Z,100790.19
2023-03-03T05:29:51.454Z,100786.88
2023-03-03T05:34:54.189Z,100790.44
2023-03-03T05:39:55.731Z,100793.81
2023-03-03T05:44:57.197Z,100801.38
2023-03-03T05:49:58.859Z,100813.81
2023-03-03T05:55:00.313Z,100822.22
2023-03-03T06:00:06.283Z,100818.72
2023-03-03T06:05:08.851Z,100821.16
2023-03-03T06:10:11.217Z,100834.53
2023-03-03T06:15:12.746Z,100840.38
2023-03-03T06:20:14.288Z,100841.38
2023-03-03T06:25:16.622Z,100848.94
2023-03-03T06:30:18.988Z,100864.09
2023-03-03T06:35:20.713Z,100864.25
2023-03-03T06:40:22.563Z,100870.16
2023-03-03T06:45:24.273Z,100879.59
2023-03-03T06:50:25.703Z,100872.25
2023-03-03T06:55:27.274Z,100879.09
2023-03-03T07:00:31.265Z,100878.25
2023-03-03T07:05:34.508Z,100885.09
2023-03-03T07:10:36.135Z,100889.41
2023-03-03T07:15:37.859Z,100895.41
2023-03-03T07:20:41.090Z,100889.72
2023-03-03T07:25:46.316Z,100899.16
2023-03-03T07:30:47.946Z,100888.38
2023-03-03T07:35:50.344Z,100890.25
2023-03-03T07:40:54.627Z,100886.16
2023-03-03T07:46:35.305Z,100898.03
2023-03-03T07:51:39.674Z,100898.13
2023-03-03T07:56:41.166Z,100913.25
2023-03-03T08:01:46.223Z,100922.53
2023-03-03T08:06:59.399Z,100923.38
2023-03-03T08:12:07.096Z,100925.91
2023-03-03T08:17:25.201Z,100923.41
2023-03-03T08:22:36.197Z,100916.69
2023-03-03T08:27:37.738Z,100915.84
2023-03-03T08:32:39.356Z,100910.69
2023-03-03T08:37:40.843Z,100917.22
2023-03-03T08:42:42.603Z,100912.66
2023-03-03T08:47:44.896Z,100894.94
2023-03-03T08:52:47.317Z,100903.50
2023-03-03T08:57:48.863Z,100908.63
2023-03-03T09:02:51.051Z,100917.59
2023-03-03T09:07:53.021Z,100918.78
2023-03-03T09:12:58.225Z,100914.41
2023-03-03T09:18:08.384Z,100925.69
2023-03-03T09:23:31.190Z,100927.81
2023-03-03T09:28:33.147Z,100935.28
2023-03-03T09:33:43.954Z,100934.94
2023-03-03T09:38:46.195Z,100938.44
2023-03-03T09:44:18.510Z,100935.81
2023-03-03T09:49:43.674Z,100939.28
2023-03-03T09:55:03.568Z,100921.69
2023-03-03T10:00:20.138Z,100933.94
2023-03-03T10:05:34.789Z,100925.53
2023-03-03T10:10:56.728Z,100939.44
2023-03-03T10:16:29.478Z,100936.34
2023-03-03T10:21:48.457Z,100931.44
2023-03-03T10:27:13.578Z,100931.59
2023-03-03T10:32:34.148Z,100929.06
2023-03-03T10:37:47.562Z,100930.78
2023-03-03T10:43:07.761Z,100936.13
2023-03-03T10:48:31.029Z,100924.31
2023-03-03T10:53:44.076Z,100929.03
2023-03-03T10:59:11.216Z,100937.19
2023-03-03T11:04:43.625Z,100929.91
2023-03-03T11:10:05.893Z,100928.25
2023-03-03T11:15:34.408Z,100928.38
2023-03-03T11:20:43.117Z,100931.97
2023-03-03T11:25:58.793Z,100933.97
2023-03-03T11:31:19.658Z,100927.59
2023-03-03T11:36:27.600Z,100926.63
2023-03-03T11:41:39.732Z,100920.41
2023-03-03T11:46:48.588Z,100902.47
2023-03-03T11:52:03.041Z,100905.72
2023-03-03T11:57:36.338Z,100895.97
2023-03-03T12:03:02.310Z,100889.66
2023-03-03T12:08:22.512Z,100886.50
2023-03-03T12:13:36.722Z,100880.78
2023-03-03T12:19:05.513Z,100890.22
2023-03-03T12:24:25.432Z,100877.50
2023-03-03T12:29:55.082Z,100869.78
2023-03-03T12:35:12.311Z,100867.66
2023-03-03T12:40:21.201Z,100854.78
2023-03-03T12:45:44.018Z,100849.69
2023-03-03T12:51:10.951Z,100854.47
2023-03-03T12:56:18.620Z,100858.44
2023-03-03T13:01:42.954Z,100846.84
2023-03-03T13:06:59.858Z,100849.56
2023-03-03T13:12:19.975Z,100844.34
2023-03-03T13:17:21.530Z,100839.53
2023-03-03T13:22:38.066Z,100854.75
2023-03-03T13:27:45.564Z,100845.38
2023-03-03T13:33:11.587Z,100836.66
2023-03-03T13:38:18.383Z,100833.47
2023-03-03T13:43:24.884Z,100836.28
2023-03-03T13:48:44.815Z,100837.25
2023-03-03T13:54:24.921Z,100831.31
2023-03-03T13:59:32.392Z,100813.72
2023-03-03T14:04:54.197Z,100818.28
2023-03-03T14:10:17.087Z,100815.16
2023-03-03T14:15:26.307Z,100805.81
2023-03-03T14:20:34.727Z,100801.00
2023-03-03T14:26:05.254Z,100801.13
2023-03-03T14:31:15.631Z,100801.16
2023-03-03T14:36:30.179Z,100810.44
2023-03-03T14:41:39.626Z,100805.91
2023-03-03T14:46:41.790Z,100807.66
2023-03-03T14:51:49.116Z,100809.47
2023-03-03T14:56:58.877Z,100811.56
2023-03-03T15:02:28.811Z,100817.94
2023-03-03T15:07:36.378Z,100801.06
2023-03-03T15:12:42.185Z,100797.69
2023-03-03T15:17:55.328Z,100791.03
2023-03-03T15:23:32.554Z,100781.06
2023-03-03T15:28:46.173Z,100787.88
2023-03-03T15:33:55.963Z,100782.94
2023-03-03T15:39:22.150Z,100787.06
2023-03-03T15:44:38.406Z,100789.41
2023-03-03T15:49:52.995Z,100789.56
2023-03-03T15:55:17.309Z,100786.31
2023-03-03T16:00:26.894Z,100782.97
2023-03-03T16:05:53.989Z,100797.44
2023-03-03T16:11:05.731Z,100803.44
2023-03-03T16:16:25.643Z,100795.94
2023-03-03T16:21:48.991Z,100794.47
2023-03-03T16:27:12.668Z,100806.53
2023-03-03T16:32:40.203Z,100806.78
2023-03-03T16:38:19.501Z,100807.09
2023-03-03T16:43:49.289Z,100818.44
2023-03-03T16:49:02.507Z,100827.25
2023-03-03T16:54:36.434Z,100833.53
2023-03-03T17:00:25.465Z,100843.13
2023-03-03T17:05:40.049Z,100850.25
2023-03-03T17:11:00.110Z,100861.56
2023-03-03T17:16:08.494Z,100864.34
2023-03-03T17:21:25.022Z,100867.91
2023-03-03T17:26:40.467Z,100865.56
2023-03-03T17:32:12.134Z,100881.75
2023-03-03T17:37:29.194Z,100892.00
2023-03-03T17:42:39.888Z,100901.41
2023-03-03T17:48:06.080Z,100907.34
2023-03-03T17:53:25.752Z,100911.56
2023-03-03T17:58:53.262Z,100935.25
2023-03-03T18:04:15.792Z,100938.66
2023-03-03T18:09:24.976Z,100940.41
2023-03-03T18:14:54.375Z,100945.50
2023-03-03T18:20:21.403Z,100947.25
2023-03-03T18:26:11.926Z,100957.47
2023-03-03T18:31:26.592Z,100960.13
2023-03-03T18:36:27.997Z,100964.44
2023-03-03T18:42:09.027Z,100964.50
2023-03-03T18:47:11.203Z,100977.22
2023-03-03T18:52:26.134Z,100978.94
2023-03-03T18:57:28.110Z,100977.28
2023-03-03T19:02:35.930Z,100993.28
2023-03-03T19:07:40.364Z,100992.47
2023-03-03T19:12:56.212Z,100996.66
2023-03-03T19:18:18.316Z,100996.66
2023-03-03T19:23:49.650Z,100997.47
2023-03-03T19:28:59.180Z,101003.34
2023-03-03T19:34:15.873Z,101003.28
2023-03-03T19:39:46.104Z,101006.66
2023-03-03T19:45:14.663Z,100999.88
2023-03-03T19:50:18.250Z,101015.00
2023-03-03T19:55:40.366Z,101018.28
2023-03-03T20:00:46.032Z,101020.69
2023-03-03T20:06:02.669Z,101023.94
2023-03-03T20:11:15.935Z,101028.09
2023-03-03T20:16:41.809Z,101036.47
2023-03-03T20:22:09.000Z,101035.56
2023-03-03T20:27:24.677Z,101056.47
2023-03-03T20:32:42.434Z,101049.69
2023-03-03T20:37:57.646Z,101053.81
2023-03-03T20:43:14.353Z,101052.97
2023-03-03T20:48:27.967Z,101060.47
2023-03-03T20:53:51.164Z,101059.56
2023-03-03T20:59:06.184Z,101061.94
2023-03-03T21:04:18.604Z,101066.06
2023-03-03T21:09:41.113Z,101068.44
2023-03-03T21:14:42.553Z,101072.53
2023-03-03T21:19:44.471Z,101077.38
2023-03-03T21:24:53.459Z,101074.66
2023-03-03T21:30:14.036Z,101085.44
2023-03-03T21:35:18.392Z,101083.75
2023-03-03T21:40:26.295Z,101093.72
2023-03-03T21:45:27.861Z,101089.44
2023-03-03T21:50:32.543Z,101092.72
2023-03-03T21:55:33.979Z,101097.69
2023-03-03T22:00:35.647Z,101095.19
2023-03-03T22:05:37.142Z,101107.72
2023-03-03T22:10:39.262Z,101095.97
2023-03-03T22:15:40.712Z,101091.72
2023-03-03T22:20:42.122Z,101086.66
2023-03-03T22:25:43.519Z,101099.97
2023-03-03T22:30:44.991Z,101099.81
2023-03-03T22:35:46.576Z,101098.03
2023-03-03T22:40:48.066Z,101099.56
2023-03-03T22:45:50.525Z,101107.06
2023-03-03T22:50:52.592Z,101110.38
2023-03-03T22:55:54.366Z,101114.47
2023-03-03T23:00:55.900Z,101115.88
2023-03-03T23:05:57.318Z,101119.88
2023-03-03T23:10:58.741Z,101116.44
2023-03-03T23:16:00.369Z,101116.34
2023-03-03T23:21:01.861Z,101118.75
2023-03-03T23:26:03.476Z,101118.69
2023-03-03T23:31:05.261Z,101130.34
2023-03-03T23:36:08.250Z,101128.59
2023-03-03T23:41:10.835Z,101133.63
2023-03-03T23:46:12.497Z,101134.47
2023-03-03T23:51:14.020Z,101136.16
2023-03-03T23:56:15.407Z,101144.50
